CCGS Neocaligus — CG7677 — position and weather

sailwx.info

Track history (hours):
 
Tides and Currents Weather Stations Pressure Air Temp Water Temp Dewpoint Dewpoint Depression Visibility Wind Speed Wind Dir Waves Ship Positions

CCGS Neocaligus

Last reported at 2017-Jul-21 18:14 UTC. Time now 2017-Jul-28 16:36 UTC.
Position N 49°18' W 123°41'.

Length 23 m; draft 3.5 m.

Type: SAR. MMSI: 316001759.

Date/timePositionNaut miles runAvg speedWind from/ knotsBaromVisibWave heightAir tempDewpointWater temp
2017-Jul-21 18:14N 49°18' W 123°41'2 9.5
2017-Jul-21 18:00N 49°19' W 123°39'5 9.5
2017-Jul-21 17:30N 49°22' W 123°32'5 9.1
2017-Jul-21 16:58N 49°23' W 123°25'0 0.1
2017-Jul-21 15:49N 49°23' W 123°25'1 0.7
2017-Jul-21 14:40N 49°24' W 123°24'1 5.6
2017-Jul-21 14:24N 49°25' W 123°26'3 0.2
2017-Jul-21 01:26N 49°24' W 123°30'4 7.2
2017-Jul-21 00:56N 49°27' W 123°28'8 1.2
2017-Jul-20 17:49N 49°29' W 123°15'1 2.7
2017-Jul-20 17:22N 49°30' W 123°16'0 0.8
2017-Jul-20 16:58N 49°30' W 123°16'1 0.6
2017-Jul-20 15:59N 49°30' W 123°16'2 2.5
2017-Jul-20 15:22N 49°29' W 123°15'4 7.8
2017-Jul-20 14:50N 49°26' W 123°19'6 0.5
2017-Jul-20 02:45N 49°26' W 123°28'2 9.1
2017-Jul-20 02:30N 49°28' W 123°28'4 9.2
2017-Jul-20 02:00N 49°32' W 123°26'2 3.1
2017-Jul-20 01:28N 49°33' W 123°24'1 1.1
2017-Jul-20 00:18N 49°32' W 123°25'0 0.3
2017-Jul-19 23:59N 49°32' W 123°25'1 2.5
2017-Jul-19 23:24N 49°33' W 123°23'6 0.7
2017-Jul-19 15:12N 49°29' W 123°17'2 9.2
2017-Jul-19 14:58N 49°27' W 123°18'4 8.8
2017-Jul-19 14:30N 49°25' W 123°24'4 0.3
2017-Jul-19 00:45N 49°24' W 123°29'2 9.4
2017-Jul-19 00:30N 49°25' W 123°26'4 9.2
2017-Jul-19 00:00N 49°26' W 123°19'1 0.2
2017-Jul-18 21:06N 49°27' W 123°19'1 7.6
2017-Jul-18 20:58N 49°27' W 123°20'1 2.8
2017-Jul-18 20:27N 49°26' W 123°22'1 1.3
2017-Jul-18 19:59N 49°26' W 123°21'0 0.2
2017-Jul-18 19:23N 49°26' W 123°21'1 2.9
2017-Jul-18 18:58N 49°26' W 123°23'0 0.8
2017-Jul-18 18:30N 49°26' W 123°22'2 3.3
2017-Jul-18 17:57N 49°27' W 123°20'2 3.5
2017-Jul-18 17:29N 49°25' W 123°20'1 2.8
2017-Jul-18 17:00N 49°25' W 123°22'1 1.5
2017-Jul-18 16:16N 49°25' W 123°21'0 1.5
2017-Jul-18 16:00N 49°25' W 123°21'0 0.8
2017-Jul-18 15:25N 49°25' W 123°22'1 2.6
2017-Jul-18 15:00N 49°25' W 123°20'6 0.4
2017-Jul-18 00:13N 49°24' W 123°30'4 6.5
2017-Jul-17 23:34N 49°20' W 123°27'1 9.2
2017-Jul-17 23:30N 49°20' W 123°26'3 6.2
2017-Jul-17 23:00N 49°20' W 123°21'2 3.3
2017-Jul-17 22:30N 49°21' W 123°20'1 2.6
2017-Jul-17 21:58N 49°20' W 123°21'0 1.0
2017-Jul-17 21:28N 49°21' W 123°21'0 0.9
2017-Jul-17 21:00N 49°20' W 123°21'1 1.2
2017-Jul-17 20:30N 49°21' W 123°21'1 1.1
2017-Jul-17 20:00N 49°21' W 123°20'3 6.2
2017-Jul-17 19:30N 49°19' W 123°24'5 8.9
2017-Jul-17 18:59N 49°17' W 123°30'16 0.6
2017-Jul-16 15:58N 49°01' W 123°35'4 8.8
2017-Jul-16 15:29N 48°57' W 123°33'5 9.4
2017-Jul-16 14:57N 48°54' W 123°27'7 0.5
2017-Jul-15 22:36N 48°47' W 123°22'1 8.5
2017-Jul-15 22:31N 48°47' W 123°22'2 3.2
2017-Jul-15 22:00N 48°45' W 123°22'2 5.0
2017-Jul-15 21:30N 48°44' W 123°25'4 8.5
2017-Jul-15 21:00N 48°43' W 123°31'2 3.7
2017-Jul-15 20:30N 48°44' W 123°34'4 9.1
2017-Jul-15 20:00N 48°42' W 123°28'4 8.5
2017-Jul-15 19:30N 48°41' W 123°21'4 8.0
2017-Jul-15 19:00N 48°38' W 123°18'2 5.0
2017-Jul-15 18:30N 48°37' W 123°15'3 5.7
2017-Jul-15 18:00N 48°39' W 123°15'4 8.3
2017-Jul-15 17:31N 48°43' W 123°12'510.0
2017-Jul-15 17:00N 48°45' W 123°06'10 0.7
2017-Jul-15 02:41N 48°53' W 123°15'3 8.7
2017-Jul-15 02:18N 48°56' W 123°17'3 9.0
2017-Jul-15 01:59N 48°58' W 123°19'5 8.9
2017-Jul-15 01:26N 49°03' W 123°22'1 2.0
2017-Jul-15 00:59N 49°03' W 123°22'3 6.0
2017-Jul-15 00:29N 49°06' W 123°24'5 9.5
2017-Jul-14 23:59N 49°11' W 123°26'1 2.5
2017-Jul-14 23:27N 49°12' W 123°27'41 7.1
2017-Jul-14 17:42N 49°27' W 124°25'17 6.2
2017-Jul-14 14:56N 49°32' W 124°51'4 9.5
2017-Jul-14 14:31N 49°36' W 124°52'4 0.3
2017-Jul-14 01:44N 49°40' W 124°55'8 6.5
2017-Jul-14 00:29N 49°42' W 124°43'0 0.3
2017-Jul-14 00:00N 49°42' W 124°43'2 4.9
2017-Jul-13 23:30N 49°45' W 124°42'5 9.3
2017-Jul-13 23:00N 49°49' W 124°38'5 9.3
2017-Jul-13 22:30N 49°47' W 124°31'510.4
2017-Jul-13 22:00N 49°44' W 124°24'510.2
2017-Jul-13 21:30N 49°41' W 124°18'1 2.7
2017-Jul-13 20:57N 49°40' W 124°16'2 5.1
2017-Jul-13 20:30N 49°39' W 124°13'5 9.3
2017-Jul-13 19:56N 49°38' W 124°05'5 5.8
2017-Jul-13 19:08N 49°33' W 124°06'3 5.4
2017-Jul-13 18:38N 49°30' W 124°06'0 0.1
2017-Jul-13 18:27N 49°30' W 124°06'24 5.9
2017-Jul-13 14:22N 49°23' W 123°31'  
Track history (hours):
 
Tides and Currents Weather Stations Pressure Air Temp Water Temp Dewpoint Dewpoint Depression Visibility Wind Speed Wind Dir Waves Ship Positions

CCGS Neocaligus

Last reported at 2017-Jul-21 18:14 UTC. Time now 2017-Jul-28 16:36 UTC.
Position N 49°18' W 123°41'.

Length 23 m; draft 3.5 m.

Type: SAR. MMSI: 316001759.

Date/timePositionNaut miles runAvg speedWind from/ knotsBaromVisibWave heightAir tempDewpointWater temp
2017-Jul-21 18:14N 49°18' W 123°41'2 9.5
2017-Jul-21 18:00N 49°19' W 123°39'5 9.5
2017-Jul-21 17:30N 49°22' W 123°32'5 9.1
2017-Jul-21 16:58N 49°23' W 123°25'0 0.1
2017-Jul-21 15:49N 49°23' W 123°25'1 0.7
2017-Jul-21 14:40N 49°24' W 123°24'1 5.6
2017-Jul-21 14:24N 49°25' W 123°26'3 0.2
2017-Jul-21 01:26N 49°24' W 123°30'4 7.2
2017-Jul-21 00:56N 49°27' W 123°28'8 1.2
2017-Jul-20 17:49N 49°29' W 123°15'1 2.7
2017-Jul-20 17:22N 49°30' W 123°16'0 0.8
2017-Jul-20 16:58N 49°30' W 123°16'1 0.6
2017-Jul-20 15:59N 49°30' W 123°16'2 2.5
2017-Jul-20 15:22N 49°29' W 123°15'4 7.8
2017-Jul-20 14:50N 49°26' W 123°19'6 0.5
2017-Jul-20 02:45N 49°26' W 123°28'2 9.1
2017-Jul-20 02:30N 49°28' W 123°28'4 9.2
2017-Jul-20 02:00N 49°32' W 123°26'2 3.1
2017-Jul-20 01:28N 49°33' W 123°24'1 1.1
2017-Jul-20 00:18N 49°32' W 123°25'0 0.3
2017-Jul-19 23:59N 49°32' W 123°25'1 2.5
2017-Jul-19 23:24N 49°33' W 123°23'6 0.7
2017-Jul-19 15:12N 49°29' W 123°17'2 9.2
2017-Jul-19 14:58N 49°27' W 123°18'4 8.8
2017-Jul-19 14:30N 49°25' W 123°24'4 0.3
2017-Jul-19 00:45N 49°24' W 123°29'2 9.4
2017-Jul-19 00:30N 49°25' W 123°26'4 9.2
2017-Jul-19 00:00N 49°26' W 123°19'1 0.2
2017-Jul-18 21:06N 49°27' W 123°19'1 7.6
2017-Jul-18 20:58N 49°27' W 123°20'1 2.8
2017-Jul-18 20:27N 49°26' W 123°22'1 1.3
2017-Jul-18 19:59N 49°26' W 123°21'0 0.2
2017-Jul-18 19:23N 49°26' W 123°21'1 2.9
2017-Jul-18 18:58N 49°26' W 123°23'0 0.8
2017-Jul-18 18:30N 49°26' W 123°22'2 3.3
2017-Jul-18 17:57N 49°27' W 123°20'2 3.5
2017-Jul-18 17:29N 49°25' W 123°20'1 2.8
2017-Jul-18 17:00N 49°25' W 123°22'1 1.5
2017-Jul-18 16:16N 49°25' W 123°21'0 1.5
2017-Jul-18 16:00N 49°25' W 123°21'0 0.8
2017-Jul-18 15:25N 49°25' W 123°22'1 2.6
2017-Jul-18 15:00N 49°25' W 123°20'6 0.4
2017-Jul-18 00:13N 49°24' W 123°30'4 6.5
2017-Jul-17 23:34N 49°20' W 123°27'1 9.2
2017-Jul-17 23:30N 49°20' W 123°26'3 6.2
2017-Jul-17 23:00N 49°20' W 123°21'2 3.3
2017-Jul-17 22:30N 49°21' W 123°20'1 2.6
2017-Jul-17 21:58N 49°20' W 123°21'0 1.0
2017-Jul-17 21:28N 49°21' W 123°21'0 0.9
2017-Jul-17 21:00N 49°20' W 123°21'1 1.2
2017-Jul-17 20:30N 49°21' W 123°21'1 1.1
2017-Jul-17 20:00N 49°21' W 123°20'3 6.2
2017-Jul-17 19:30N 49°19' W 123°24'5 8.9
2017-Jul-17 18:59N 49°17' W 123°30'16 0.6
2017-Jul-16 15:58N 49°01' W 123°35'4 8.8
2017-Jul-16 15:29N 48°57' W 123°33'5 9.4
2017-Jul-16 14:57N 48°54' W 123°27'7 0.5
2017-Jul-15 22:36N 48°47' W 123°22'1 8.5
2017-Jul-15 22:31N 48°47' W 123°22'2 3.2
2017-Jul-15 22:00N 48°45' W 123°22'2 5.0
2017-Jul-15 21:30N 48°44' W 123°25'4 8.5
2017-Jul-15 21:00N 48°43' W 123°31'2 3.7
2017-Jul-15 20:30N 48°44' W 123°34'4 9.1
2017-Jul-15 20:00N 48°42' W 123°28'4 8.5
2017-Jul-15 19:30N 48°41' W 123°21'4 8.0
2017-Jul-15 19:00N 48°38' W 123°18'2 5.0
2017-Jul-15 18:30N 48°37' W 123°15'3 5.7
2017-Jul-15 18:00N 48°39' W 123°15'4 8.3
2017-Jul-15 17:31N 48°43' W 123°12'510.0
2017-Jul-15 17:00N 48°45' W 123°06'10 0.7
2017-Jul-15 02:41N 48°53' W 123°15'3 8.7
2017-Jul-15 02:18N 48°56' W 123°17'3 9.0
2017-Jul-15 01:59N 48°58' W 123°19'5 8.9
2017-Jul-15 01:26N 49°03' W 123°22'1 2.0
2017-Jul-15 00:59N 49°03' W 123°22'3 6.0
2017-Jul-15 00:29N 49°06' W 123°24'5 9.5
2017-Jul-14 23:59N 49°11' W 123°26'1 2.5
2017-Jul-14 23:27N 49°12' W 123°27'41 7.1
2017-Jul-14 17:42N 49°27' W 124°25'17 6.2
2017-Jul-14 14:56N 49°32' W 124°51'4 9.5
2017-Jul-14 14:31N 49°36' W 124°52'4 0.3
2017-Jul-14 01:44N 49°40' W 124°55'8 6.5
2017-Jul-14 00:29N 49°42' W 124°43'0 0.3
2017-Jul-14 00:00N 49°42' W 124°43'2 4.9
2017-Jul-13 23:30N 49°45' W 124°42'5 9.3
2017-Jul-13 23:00N 49°49' W 124°38'5 9.3
2017-Jul-13 22:30N 49°47' W 124°31'510.4
2017-Jul-13 22:00N 49°44' W 124°24'510.2
2017-Jul-13 21:30N 49°41' W 124°18'1 2.7
2017-Jul-13 20:57N 49°40' W 124°16'2 5.1
2017-Jul-13 20:30N 49°39' W 124°13'5 9.3
2017-Jul-13 19:56N 49°38' W 124°05'5 5.8
2017-Jul-13 19:08N 49°33' W 124°06'3 5.4
2017-Jul-13 18:38N 49°30' W 124°06'0 0.1
2017-Jul-13 18:27N 49°30' W 124°06'24 5.9
2017-Jul-13 14:22N 49°23' W 123°31'  

Dump ship's entire track history